Time;durP1;ratioP1;P1;durP2;ratioP2;P2;SDS_P1;SDS_P2;PMS_P1;PMS_P2;Temp;Humidity;BMP_temperature;BMP_pressure;BME280_temperature;BME280_humidity;BME280_pressure;Samples;Min_cycle;Max_cycle;Signal;HPM_P1;HPM_P2
2021/06/30 02:55:52;;;;;;;1.17;1.08;;;;;;;17.63;83.57;95435.28;4950086;29;20246;-87
2021/06/30 02:58:58;;;;;;;1.10;0.90;;;;;;;17.49;83.69;95417.28;4884809;29;20801;-87
2021/06/30 03:05:44;;;;;;;0.85;0.77;;;;;;;17.32;82.37;95405.88;4913756;29;20213;-87
2021/06/30 03:08:59;;;;;;;;;;;;;;;;;;;;;
2021/06/30 03:15:13;;;;;;;0.70;0.70;;;;;;;17.44;84.18;95427.56;4917111;29;20250;-86
2021/06/30 03:24:05;;;;;;;0.80;0.80;;;;;;;17.72;82.84;95429.53;4919521;29;20194;-86
2021/06/30 03:27:23;;;;;;;0.82;0.73;;;;;;;17.80;81.87;95426.63;4934068;29;20584;-86
2021/06/30 03:36:24;;;;;;;1.10;0.80;;;;;;;17.81;79.10;95433.41;4929654;29;20321;-87
2021/06/30 03:39:31;;;;;;;1.17;0.93;;;;;;;17.60;77.84;95437.31;4932302;29;20661;-86
2021/06/30 03:45:47;;;;;;;1.00;0.77;;;;;;;17.41;80.08;95433.19;4846074;29;20231;-86
2021/06/30 03:48:23;;;;;;;2.00;0.50;;;;;;;17.25;78.29;95433.84;4932830;29;20209;-87
2021/06/30 03:50:53;;;;;;;0.98;0.70;;;;;;;17.16;77.83;95428.13;4931954;29;20202;-86
2021/06/30 03:53:30;;;;;;;0.60;0.60;;;;;;;17.09;78.58;95437.06;4932468;29;20221;-86
2021/06/30 03:56:08;;;;;;;0.65;0.60;;;;;;;16.93;78.56;95441.06;4931613;29;20229;-86
2021/06/30 03:58:41;;;;;;;1.33;0.70;;;;;;;16.96;78.94;95440.59;4933280;29;20201;-86
2021/06/30 04:01:36;;;;;;;0.50;0.50;;;;;;;16.98;78.35;95442.97;4933933;29;20221;-85
2021/06/30 04:04:06;;;;;;;1.55;0.68;;;;;;;16.93;79.13;95441.06;4934442;29;20197;-86
2021/06/30 04:06:35;;;;;;;1.73;0.40;;;;;;;17.03;79.02;95440.53;4934077;29;20353;-86
2021/06/30 04:09:02;;;;;;;0.60;0.60;;;;;;;17.18;77.12;95438.31;4934205;29;20209;-86
2021/06/30 04:11:46;;;;;;;0.43;0.40;;;;;;;17.01;76.49;95438.16;4934906;29;20204;-85
2021/06/30 04:14:13;;;;;;;0.57;0.50;;;;;;;17.00;76.87;95433.16;4935133;29;20212;-86
2021/06/30 04:20:10;;;;;;;0.75;0.50;;;;;;;17.14;76.92;95429.38;4882626;29;20209;-85
2021/06/30 04:22:54;;;;;;;0.68;0.50;;;;;;;17.15;77.27;95426.53;4915967;29;20225;-86
2021/06/30 04:25:21;;;;;;;0.60;0.60;;;;;;;16.99;76.51;95424.56;4915536;29;20218;-86
2021/06/30 04:27:47;;;;;;;1.63;0.60;;;;;;;17.01;77.84;95425.13;4916612;29;20202;-86
2021/06/30 04:30:23;;;;;;;0.63;0.50;;;;;;;17.06;77.02;95424.50;4916112;29;20202;-86
2021/06/30 04:32:49;;;;;;;0.30;0.30;;;;;;;16.97;76.39;95416.19;4916010;29;20216;-86
2021/06/30 04:35:28;;;;;;;0.50;0.40;;;;;;;17.04;76.23;95418.72;4916180;29;20203;-87
2021/06/30 04:38:32;;;;;;;1.00;0.55;;;;;;;17.13;77.08;95409.56;4910580;29;20241;-87
2021/06/30 04:55:07;;;;;;;1.55;0.93;;;;;;;17.08;76.41;95420.66;4847323;29;20248;-85
2021/06/30 05:00:38;;;;;;;0.60;0.60;;;;;;;17.15;77.19;95412.75;4870504;29;20815;-85
2021/06/30 05:03:26;;;;;;;;;;;;;;;;;;;;;
2021/06/30 05:08:54;;;;;;;0.50;0.50;;;;;;;17.09;76.83;95411.84;4966080;28;20303;-86
2021/06/30 05:12:12;;;;;;;0.57;0.50;;;;;;;17.05;76.22;95421.09;4970061;28;20192;-87
2021/06/30 05:15:43;;;;;;;0.40;0.40;;;;;;;16.94;74.95;95424.41;4943429;28;20204;-85
2021/06/30 05:19:13;;;;;;;;;;;;;;;;;;;;;
2021/06/30 05:35:19;;;;;;;;;;;;;;;;;;;;;
2021/06/30 05:42:00;;;;;;;;;;;;;;;;;;;;;
2021/06/30 05:51:49;;;;;;;;;;;;;;;;;;;;;
2021/06/30 06:12:23;;;;;;;;;;;;;;;;;;;;;
2021/06/30 06:28:31;;;;;;;0.47;0.47;;;;;;;17.66;71.72;95414.84;4844055;29;20203;-86
2021/06/30 06:31:34;;;;;;;0.40;0.40;;;;;;;17.83;71.32;95410.53;4909653;29;20390;-84
2021/06/30 06:48:22;;;;;;;;;;;;;;;;;;;;;
2021/06/30 07:04:10;;;;;;;0.50;0.50;;;;;;;18.19;68.07;95417.34;4816928;29;20205;-86
2021/06/30 07:06:42;;;;;;;1.25;0.47;;;;;;;18.11;66.90;95415.06;4883470;29;20225;-86
2021/06/30 07:09:18;;;;;;;0.40;0.40;;;;;;;18.04;66.05;95411.81;4931451;29;20198;-88
2021/06/30 07:11:49;;;;;;;0.40;0.40;;;;;;;18.18;66.74;95414.97;4931417;29;20189;-86
2021/06/30 07:14:20;;;;;;;4.35;3.95;;;;;;;18.32;66.14;95411.09;4931679;29;20213;-88
2021/06/30 07:16:47;;;;;;;0.85;0.60;;;;;;;18.35;65.33;95415.06;4938842;29;20225;-86
2021/06/30 07:19:15;;;;;;;0.40;0.40;;;;;;;18.26;63.94;95422.44;4950155;28;20220;-85
2021/06/30 07:21:49;;;;;;;0.40;0.40;;;;;;;18.32;65.49;95413.69;4950456;29;20239;-86
2021/06/30 07:27:54;;;;;;;;;;;;;;;;;;;;;
2021/06/30 07:33:26;;;;;;;0.57;0.57;;;;;;;18.95;62.86;95405.88;4949562;29;20288;-86
2021/06/30 07:35:55;;;;;;;0.47;0.47;;;;;;;19.09;61.38;95413.41;4952980;28;20228;-86
2021/06/30 07:38:25;;;;;;;0.75;0.43;;;;;;;18.95;59.26;95408.47;4951852;28;20201;-86
2021/06/30 07:44:05;;;;;;;0.55;0.50;;;;;;;19.18;60.07;95407.59;4916755;28;20205;-87
2021/06/30 07:46:35;;;;;;;1.13;0.45;;;;;;;19.25;59.29;95405.59;4931107;29;20224;-87
2021/06/30 07:49:06;;;;;;;0.55;0.55;;;;;;;19.40;61.07;95407.72;4945329;29;20212;-87
2021/06/30 07:51:59;;;;;;;1.63;0.60;;;;;;;19.47;59.06;95399.72;4950736;28;20232;-87
2021/06/30 07:54:50;;;;;;;1.10;0.40;;;;;;;19.59;58.05;95398.66;4951029;28;20291;-86
2021/06/30 08:00:13;;;;;;;1.75;0.50;;;;;;;19.61;56.19;95401.03;4940318;28;20783;-87
2021/06/30 08:05:20;;;;;;;0.55;0.40;;;;;;;19.54;55.15;95403.78;4950110;28;20297;-87
2021/06/30 08:08:02;;;;;;;0.40;0.40;;;;;;;19.67;55.06;95405.28;4950443;28;20328;-87
2021/06/30 08:10:52;;;;;;;;;;;;;;;;;;;;;
2021/06/30 08:13:51;;;;;;;1.42;0.50;;;;;;;19.81;56.04;95413.63;4949943;29;20205;-87
2021/06/30 08:17:11;;;;;;;0.30;0.30;;;;;;;19.86;54.92;95406.63;4950492;28;20308;-86
2021/06/30 08:19:38;;;;;;;0.40;0.40;;;;;;;19.87;55.02;95410.03;4950865;28;20294;-85
2021/06/30 08:22:10;;;;;;;0.40;0.40;;;;;;;19.87;56.03;95402.19;4949949;29;20221;-88
2021/06/30 08:24:41;;;;;;;0.50;0.50;;;;;;;19.83;54.20;95411.53;4950296;28;20304;-86
2021/06/30 08:27:14;;;;;;;0.55;0.50;;;;;;;19.67;54.42;95416.53;4949501;28;20233;-87
2021/06/30 08:29:44;;;;;;;0.70;0.50;;;;;;;19.56;57.64;95421.84;4930318;29;20255;-87
2021/06/30 08:32:28;;;;;;;0.77;0.40;;;;;;;19.52;56.20;95421.50;4930332;29;20205;-87
2021/06/30 08:35:03;;;;;;;0.50;0.50;;;;;;;19.36;55.60;95416.25;4938894;29;20208;-86
2021/06/30 08:38:03;;;;;;;0.40;0.40;;;;;;;19.16;55.50;95422.69;4950627;28;20224;-87
2021/06/30 08:40:32;;;;;;;1.48;0.45;;;;;;;19.18;56.37;95433.69;4946558;28;20211;-87
2021/06/30 08:53:01;;;;;;;0.40;0.40;;;;;;;19.33;56.64;95423.50;4948451;29;20219;-88
2021/06/30 08:55:51;;;;;;;8.25;7.45;;;;;;;19.62;56.50;95434.75;4939052;28;20228;-87
2021/06/30 09:07:35;;;;;;;0.50;0.50;;;;;;;19.50;55.70;95441.84;4948092;29;20216;-86
2021/06/30 09:10:15;;;;;;;;;;;;;;;;;;;;;
2021/06/30 09:13:02;;;;;;;0.68;0.60;;;;;;;19.80;54.51;95444.19;4952701;29;20197;-87
2021/06/30 09:15:32;;;;;;;0.50;0.50;;;;;;;19.83;54.56;95451.53;4952982;28;20228;-86
2021/06/30 09:25:27;;;;;;;0.95;0.60;;;;;;;19.29;54.38;95458.16;4902365;29;20237;-85
2021/06/30 09:27:58;;;;;;;2.00;0.68;;;;;;;19.26;53.76;95461.22;4939512;29;20270;-86
2021/06/30 09:31:37;;;;;;;;;;;;;;;;;;;;;
2021/06/30 09:34:19;;;;;;;3.22;0.68;;;;;;;19.41;54.10;95463.34;4911179;29;20206;-86
2021/06/30 09:40:21;;;;;;;0.68;0.68;;;;;;;19.44;53.80;95463.63;4971166;28;20212;-87
2021/06/30 09:52:52;;;;;;;;;;;;;;;;;;;;;
2021/06/30 10:29:26;;;;;;;0.60;0.60;;;;;;;20.94;49.58;95444.47;4755030;29;20237;-89
2021/06/30 10:31:57;;;;;;;0.50;0.50;;;;;;;20.86;49.04;95442.25;4825438;29;20211;-87
2021/06/30 10:34:40;;;;;;;1.45;0.68;;;;;;;20.96;49.83;95434.53;4907832;29;20293;-87
2021/06/30 10:37:28;;;;;;;0.50;0.50;;;;;;;20.85;50.45;95445.13;4931981;29;20359;-87
2021/06/30 10:39:56;;;;;;;0.50;0.50;;;;;;;20.73;51.16;95437.41;4932455;29;20654;-86
2021/06/30 10:42:36;;;;;;;1.05;0.70;;;;;;;20.60;50.81;95432.50;4933175;29;20202;-87
2021/06/30 10:45:27;;;;;;;1.10;0.50;;;;;;;20.18;51.02;95440.84;4932929;29;20213;-87
2021/06/30 11:21:31;;;;;;;0.55;0.50;;;;;;;19.53;53.24;95445.81;4891596;28;20702;-87
2021/06/30 11:24:46;;;;;;;2.47;0.70;;;;;;;19.49;54.10;95450.69;4951640;28;20298;-86
2021/06/30 11:28:20;;;;;;;;;;;;;;;;;;;;;
2021/06/30 11:37:23;;;;;;;0.50;0.50;;;;;;;19.54;54.53;95442.97;4990931;23;20240;-86
2021/06/30 11:39:57;;;;;;;0.52;0.52;;;;;;;19.36;53.99;95442.34;4952067;28;20233;-85
2021/06/30 11:46:17;;;;;;;0.60;0.60;;;;;;;19.12;54.48;95444.25;4934166;29;20257;-88
2021/06/30 12:05:40;;;;;;;;;;;;;;;;;;;;;
2021/06/30 12:18:08;;;;;;;4.03;0.60;;;;;;;18.21;64.03;95435.34;4846633;29;20216;-87
2021/06/30 12:24:54;;;;;;;0.80;0.80;;;;;;;17.99;67.59;95442.94;4909557;29;20645;-88
2021/06/30 12:27:26;;;;;;;2.00;0.70;;;;;;;18.06;68.73;95445.44;4931874;28;20224;-86
2021/06/30 12:29:59;;;;;;;0.98;0.70;;;;;;;17.84;69.44;95442.59;4961381;28;20205;-85
2021/06/30 12:32:27;;;;;;;0.80;0.80;;;;;;;17.88;69.58;95447.13;4970040;28;20255;-87
2021/06/30 12:35:01;;;;;;;1.73;0.90;;;;;;;17.82;71.66;95453.25;4962918;28;20665;-85
2021/06/30 12:37:40;;;;;;;1.95;0.90;;;;;;;17.75;71.67;95449.94;4949985;28;20304;-88
2021/06/30 12:40:13;;;;;;;2.85;0.98;;;;;;;17.82;72.38;95449.84;4949803;28;20245;-87
2021/06/30 12:42:52;;;;;;;0.80;0.80;;;;;;;17.82;73.61;95444.63;4949613;28;20664;-86
2021/06/30 12:45:20;;;;;;;1.52;0.90;;;;;;;17.67;74.42;95452.88;4949763;28;20204;-86
2021/06/30 12:48:19;;;;;;;1.70;0.70;;;;;;;17.62;73.66;95447.50;4951076;29;20291;-87
2021/06/30 12:50:49;;;;;;;1.00;0.82;;;;;;;17.65;72.69;95446.31;4949414;29;20288;-86
2021/06/30 12:53:24;;;;;;;0.80;0.80;;;;;;;17.71;74.15;95450.59;4948923;28;20284;-86
2021/06/30 12:56:06;;;;;;;4.72;4.20;;;;;;;17.70;75.52;95451.63;4949700;28;20603;-86
2021/06/30 12:58:55;;;;;;;5.40;4.80;;;;;;;17.83;75.16;95447.00;4949683;28;20262;-87
2021/06/30 13:01:43;;;;;;;2.03;1.00;;;;;;;17.70;74.95;95436.03;4949422;29;20208;-87
2021/06/30 13:04:28;;;;;;;1.27;1.00;;;;;;;17.60;75.44;95432.09;4943797;28;20254;-87
2021/06/30 13:07:00;;;;;;;1.10;0.90;;;;;;;17.63;76.00;95425.66;4949540;28;20220;-86
2021/06/30 13:10:21;;;;;;;0.80;0.80;;;;;;;17.45;76.97;95425.75;4949261;28;20232;-87
2021/06/30 13:17:25;;;;;;;0.95;0.88;;;;;;;17.49;76.12;95439.91;4792387;29;20303;-87
2021/06/30 13:20:46;;;;;;;0.90;0.80;;;;;;;17.56;75.81;95440.59;4843300;29;20215;-88
2021/06/30 13:23:53;;;;;;;1.88;1.33;;;;;;;17.69;76.24;95437.03;4836115;29;20691;-85
2021/06/30 13:36:46;;;;;;;;;;;;;;;;;;;;;
2021/06/30 13:42:29;;;;;;;1.13;0.80;;;;;;;17.73;72.81;95436.34;4894845;29;20210;-86
2021/06/30 13:45:48;;;;;;;;;;;;;;;;;;;;;
2021/06/30 13:48:59;;;;;;;;;;;;;;;;;;;;;
2021/06/30 13:52:41;;;;;;;;;;;;;;;;;;;;;
2021/06/30 14:01:21;;;;;;;1.70;0.93;;;;;;;17.90;72.38;95426.84;4965447;28;20216;-87
2021/06/30 14:07:51;;;;;;;0.80;0.80;;;;;;;17.94;70.72;95422.78;4818059;29;20630;-86
2021/06/30 14:10:57;;;;;;;0.82;0.70;;;;;;;17.73;69.63;95428.53;4811646;29;20249;-86
2021/06/30 14:13:44;;;;;;;0.82;0.65;;;;;;;17.68;69.61;95428.44;4861616;29;20209;-85
2021/06/30 14:16:30;;;;;;;0.60;0.60;;;;;;;17.70;68.60;95436.03;4917687;29;20789;-85
2021/06/30 14:19:28;;;;;;;2.95;0.80;;;;;;;17.75;69.55;95431.69;4965571;28;20200;-85
2021/06/30 14:36:40;;;;;;;3.60;0.70;;;;;;;18.35;67.65;95404.63;4810936;23;20212;-88
2021/06/30 14:39:23;;;;;;;0.70;0.70;;;;;;;18.67;67.41;95403.22;4856263;29;20220;-86
2021/06/30 14:48:01;;;;;;;0.80;0.75;;;;;;;18.81;62.46;95395.94;5060870;23;20240;-86
2021/06/30 14:50:30;;;;;;;2.55;0.88;;;;;;;18.87;62.09;95392.38;4955352;29;20205;-86
2021/06/30 14:52:57;;;;;;;4.10;1.73;;;;;;;18.83;63.38;95404.34;4954761;28;20193;-85
2021/06/30 14:55:31;;;;;;;2.47;2.20;;;;;;;18.74;63.49;95401.28;4958573;28;20275;-86
2021/06/30 14:57:57;;;;;;;3.00;0.88;;;;;;;18.73;64.32;95398.91;4946188;29;20264;-85
2021/06/30 15:00:33;;;;;;;1.90;0.80;;;;;;;18.70;64.09;95399.38;4933955;29;20209;-85
2021/06/30 15:03:00;;;;;;;1.48;0.77;;;;;;;18.72;64.03;95408.53;4943668;29;20203;-85
2021/06/30 15:05:29;;;;;;;1.13;0.70;;;;;;;18.43;63.76;95419.94;4935322;29;20259;-85
2021/06/30 15:07:59;;;;;;;0.50;0.50;;;;;;;18.35;64.89;95420.28;4935791;29;20210;-85
2021/06/30 15:10:28;;;;;;;0.95;0.68;;;;;;;18.51;64.91;95409.91;4935541;29;20209;-85
2021/06/30 15:12:55;;;;;;;0.70;0.70;;;;;;;18.60;64.48;95405.19;4935970;29;20198;-85
2021/06/30 15:15:25;;;;;;;0.90;0.70;;;;;;;18.67;63.93;95400.63;4936181;29;20214;-85
2021/06/30 15:17:51;;;;;;;1.23;0.68;;;;;;;18.77;64.65;95395.59;4936424;29;20198;-84
2021/06/30 15:20:23;;;;;;;0.60;0.60;;;;;;;18.89;64.84;95385.91;4928398;29;20202;-84
2021/06/30 15:22:50;;;;;;;0.90;0.90;;;;;;;18.87;64.65;95384.56;4930020;29;20601;-86
2021/06/30 15:25:17;;;;;;;0.85;0.80;;;;;;;18.94;64.89;95399.06;4934596;29;20233;-84
2021/06/30 15:27:48;;;;;;;1.05;0.65;;;;;;;19.05;63.54;95386.22;4934726;29;20225;-84
2021/06/30 15:30:18;;;;;;;1.88;0.70;;;;;;;19.03;63.13;95388.25;4941296;29;20223;-85
2021/06/30 15:32:45;;;;;;;2.17;0.93;;;;;;;19.33;63.11;95391.38;4953419;29;20205;-84
2021/06/30 15:35:30;;;;;;;0.60;0.60;;;;;;;19.48;62.65;95394.25;4952877;29;20209;-86
2021/06/30 15:38:07;;;;;;;1.25;0.85;;;;;;;19.79;62.07;95405.22;4943973;29;20193;-85
2021/06/30 15:41:08;;;;;;;0.90;0.75;;;;;;;19.89;61.44;95392.31;4933515;29;20204;-85
2021/06/30 15:43:38;;;;;;;1.13;0.70;;;;;;;19.98;61.09;95391.66;4937778;29;20700;-85
2021/06/30 15:46:05;;;;;;;9.13;8.23;;;;;;;19.97;62.35;95386.69;4952846;28;20264;-85
2021/06/30 15:49:10;;;;;;;1.60;1.50;;;;;;;20.23;60.92;95395.66;4952135;29;20292;-85
2021/06/30 15:58:25;;;;;;;;;;;;;;;;;;;;;
2021/06/30 16:27:14;;;;;;;8.93;8.02;;;;;;;19.75;63.73;95445.91;4869857;29;20238;-85
2021/06/30 16:30:07;;;;;;;1.15;1.05;;;;;;;19.35;64.25;95444.16;4875521;28;20218;-85
2021/06/30 16:32:59;;;;;;;1.00;0.80;;;;;;;18.98;64.29;95443.75;4928283;28;20209;-84
2021/06/30 16:35:35;;;;;;;0.70;0.70;;;;;;;18.84;63.54;95439.84;4950783;28;20212;-85
2021/06/30 16:41:12;;;;;;;0.90;0.82;;;;;;;18.80;71.02;95417.84;4948282;28;20209;-85
2021/06/30 16:47:18;;;;;;;;;;;;;;;;;;;;;
2021/06/30 16:49:47;;;;;;;1.00;0.90;;;;;;;18.69;73.84;95385.53;4942752;28;20213;-85
2021/06/30 16:52:39;;;;;;;1.00;0.80;;;;;;;18.72;71.93;95394.72;4950404;29;20212;-84
2021/06/30 16:55:15;;;;;;;0.80;0.80;;;;;;;18.90;73.40;95382.28;4949981;29;20263;-85
2021/06/30 16:57:50;;;;;;;0.75;0.75;;;;;;;19.06;71.61;95388.56;4942487;28;20255;-85
2021/06/30 17:12:48;;;;;;;1.33;0.80;;;;;;;19.19;64.64;95405.78;4930951;29;20209;-85
2021/06/30 17:15:53;;;;;;;1.00;0.70;;;;;;;19.17;65.29;95400.78;4875866;29;20640;-84
2021/06/30 17:18:37;;;;;;;0.95;0.88;;;;;;;19.02;64.42;95410.16;4933847;28;20215;-85
2021/06/30 17:24:47;;;;;;;0.82;0.80;;;;;;;18.80;64.54;95402.97;4911391;29;20760;-88
2021/06/30 17:53:41;;;;;;;1.38;1.00;;;;;;;18.67;68.54;95418.06;4950762;28;20220;-85
2021/06/30 17:59:28;;;;;;;2.38;1.15;;;;;;;18.59;70.24;95409.59;4877835;29;20214;-86
2021/06/30 18:44:27;;;;;;;1.77;1.60;;;;;;;18.44;75.30;95408.47;4768887;30;20218;-85
2021/06/30 18:47:48;;;;;;;1.67;1.30;;;;;;;18.47;74.80;95411.41;4763351;30;20395;-86
2021/06/30 18:50:35;;;;;;;1.67;1.50;;;;;;;18.43;74.88;95414.72;4780374;30;20225;-86
2021/06/30 18:53:24;;;;;;;1.83;1.70;;;;;;;18.45;74.29;95407.47;4843329;29;20813;-85
2021/06/30 18:55:53;;;;;;;1.80;1.40;;;;;;;18.46;74.17;95416.88;4936801;28;20240;-84
2021/06/30 18:58:25;;;;;;;16.27;14.63;;;;;;;18.46;74.40;95416.88;4970441;28;20197;-84
2021/06/30 19:04:10;;;;;;;6.50;5.80;;;;;;;18.52;74.61;95416.72;4949213;28;20244;-84
2021/06/30 19:06:43;;;;;;;4.57;3.38;;;;;;;18.57;75.20;95422.06;4960157;28;20220;-86
2021/06/30 19:17:50;;;;;;;2.38;1.50;;;;;;;18.59;74.67;95429.69;4945431;23;20911;-86
2021/06/30 19:20:31;;;;;;;1.50;1.40;;;;;;;18.57;74.15;95439.50;4940267;29;20310;-83
2021/06/30 19:23:18;;;;;;;1.58;1.30;;;;;;;18.52;73.43;95431.56;4939513;29;20201;-84
2021/06/30 19:26:03;;;;;;;;;;;;;;;;;;;;;
2021/06/30 19:28:32;;;;;;;1.02;1.02;;;;;;;18.50;73.20;95436.22;4933332;29;20284;-86
2021/06/30 19:31:02;;;;;;;1.30;1.20;;;;;;;18.51;73.70;95443.81;4940208;29;20277;-84
2021/06/30 19:33:30;;;;;;;2.17;1.42;;;;;;;18.54;73.64;95445.19;4940624;29;20201;-85
2021/06/30 19:36:18;;;;;;;1.55;1.45;;;;;;;18.49;73.96;95452.88;4940957;29;20225;-84
2021/06/30 19:39:07;;;;;;;1.38;1.20;;;;;;;18.44;73.42;95465.84;4940894;29;20245;-84
2021/06/30 19:44:22;;;;;;;1.90;1.20;;;;;;;18.21;79.10;95480.47;4939226;29;20792;-86
2021/06/30 19:46:52;;;;;;;2.00;1.33;;;;;;;18.25;77.67;95489.41;4940754;29;20232;-85
2021/06/30 19:49:24;;;;;;;1.35;1.25;;;;;;;18.26;77.54;95482.41;4941640;29;20212;-84
2021/06/30 19:51:58;;;;;;;13.88;12.50;;;;;;;18.19;77.26;95485.09;4941127;29;20209;-85
2021/06/30 19:54:24;;;;;;;12.27;10.15;;;;;;;18.18;76.68;95483.50;4941565;29;20213;-84
2021/06/30 20:04:07;;;;;;;2.95;1.20;;;;;;;18.20;76.16;95488.50;4936741;29;20209;-86
2021/06/30 20:06:57;;;;;;;1.20;1.10;;;;;;;18.11;77.41;95488.03;4940294;29;20276;-86
2021/06/30 20:09:36;;;;;;;2.95;1.20;;;;;;;18.16;77.12;95488.16;4921303;29;20210;-85
2021/06/30 20:12:26;;;;;;;1.23;1.10;;;;;;;18.16;77.74;95484.75;4921524;29;20208;-85
2021/06/30 20:15:05;;;;;;;1.00;1.00;;;;;;;18.17;76.51;95484.53;4921347;29;20210;-87
2021/06/30 20:17:49;;;;;;;2.45;1.10;;;;;;;18.16;76.88;95482.16;4920756;29;20281;-85
2021/06/30 20:20:53;;;;;;;1.48;1.17;;;;;;;18.16;76.31;95488.16;4921436;29;20205;-84
2021/06/30 20:23:28;;;;;;;1.08;0.98;;;;;;;18.11;77.31;95482.81;4918646;29;20577;-84
2021/06/30 20:26:57;;;;;;;3.13;1.13;;;;;;;18.14;76.68;95484.97;4920503;29;20237;-84
2021/06/30 20:29:43;;;;;;;1.90;1.20;;;;;;;18.14;76.71;95489.41;4881481;29;20207;-85
2021/06/30 20:32:10;;;;;;;1.48;1.38;;;;;;;18.16;77.13;95485.53;4880975;29;20722;-84
2021/06/30 20:37:37;;;;;;;1.63;1.20;;;;;;;18.20;76.89;95491.91;4914503;29;20229;-87
2021/06/30 20:52:29;;;;;;;1.35;1.10;;;;;;;18.03;78.07;95477.97;4772845;30;20208;-84
2021/06/30 20:55:15;;;;;;;1.20;1.10;;;;;;;17.95;78.90;95486.09;4789250;29;20209;-86
2021/06/30 20:57:58;;;;;;;1.63;1.10;;;;;;;17.91;80.23;95479.72;4920308;28;20607;-85
2021/06/30 21:00:52;;;;;;;1.88;1.20;;;;;;;17.94;78.53;95477.47;4922618;29;20201;-84
2021/06/30 21:03:23;;;;;;;1.70;1.60;;;;;;;17.90;79.25;95465.13;4879214;29;20207;-85
2021/06/30 21:06:11;;;;;;;1.90;1.60;;;;;;;17.92;79.91;95470.91;4938363;29;20233;-84
2021/06/30 21:08:50;;;;;;;1.17;1.08;;;;;;;17.97;79.23;95467.63;4936029;29;20237;-84
2021/06/30 21:11:30;;;;;;;1.02;1.00;;;;;;;17.99;79.36;95466.41;4935790;29;20205;-86
2021/06/30 21:14:15;;;;;;;1.00;1.00;;;;;;;17.94;79.14;95469.66;4938370;29;20209;-83
2021/06/30 21:20:35;;;;;;;1.00;1.00;;;;;;;17.95;79.25;95468.66;4925454;29;20214;-84
2021/06/30 21:23:12;;;;;;;0.93;0.93;;;;;;;17.91;79.38;95462.28;4939532;29;20773;-87
2021/06/30 21:29:35;;;;;;;1.10;1.00;;;;;;;17.91;80.71;95459.69;4915213;29;20691;-85
2021/06/30 21:34:50;;;;;;;1.30;1.20;;;;;;;17.83;81.07;95465.25;4938526;28;20212;-87
2021/06/30 21:37:28;;;;;;;1.45;1.05;;;;;;;17.76;79.96;95456.72;5031759;23;20259;-84
2021/06/30 21:43:15;;;;;;;1.90;0.93;;;;;;;17.77;79.84;95454.91;4906230;29;20210;-85
2021/06/30 21:45:46;;;;;;;1.90;0.95;;;;;;;17.79;79.91;95461.50;4967938;28;20232;-84
2021/06/30 21:48:13;;;;;;;1.55;1.20;;;;;;;17.74;80.50;95455.38;4976554;28;20204;-85
2021/06/30 21:50:47;;;;;;;1.02;0.93;;;;;;;17.68;79.82;95457.06;4979640;28;20211;-84
2021/06/30 21:53:14;;;;;;;1.10;1.00;;;;;;;17.68;80.13;95464.88;4980174;28;20204;-86
2021/06/30 21:55:51;;;;;;;1.42;1.00;;;;;;;17.64;79.89;95460.31;4979197;28;20207;-86
2021/06/30 22:01:04;;;;;;;1.77;0.93;;;;;;;17.57;80.94;95469.00;4977849;28;20203;-85
2021/06/30 22:03:35;;;;;;;1.90;0.90;;;;;;;17.51;81.85;95475.09;4963740;28;20209;-86
2021/06/30 22:06:03;;;;;;;1.58;1.10;;;;;;;17.49;82.93;95476.34;4959582;28;20237;-86
2021/06/30 22:08:32;;;;;;;1.08;1.00;;;;;;;17.40;82.75;95475.84;4973035;28;20204;-86
2021/06/30 22:11:02;;;;;;;2.35;1.05;;;;;;;17.42;83.45;95475.63;4979106;28;20221;-84
2021/06/30 22:13:29;;;;;;;1.80;1.40;;;;;;;17.45;84.43;95475.19;4979098;28;20642;-85
2021/06/30 22:15:59;;;;;;;2.28;1.02;;;;;;;17.42;83.16;95479.03;4977802;28;20220;-86
2021/06/30 22:18:33;;;;;;;1.10;1.00;;;;;;;17.47;83.80;95473.16;4978997;28;20208;-84
2021/06/30 22:21:19;;;;;;;1.00;1.00;;;;;;;17.49;83.65;95474.53;4978559;28;20203;-85
2021/06/30 22:23:52;;;;;;;1.48;1.00;;;;;;;17.48;83.13;95472.94;4978880;28;20267;-85
2021/06/30 22:26:38;;;;;;;1.85;1.10;;;;;;;17.41;83.42;95468.84;4978758;28;20270;-83
2021/06/30 22:29:07;;;;;;;1.25;1.00;;;;;;;17.37;83.20;95467.69;4978290;28;20369;-84
2021/06/30 22:31:36;;;;;;;1.10;0.90;;;;;;;17.32;83.13;95476.16;4977351;28;20738;-85
2021/06/30 22:34:03;;;;;;;1.15;1.05;;;;;;;17.18;83.48;95478.16;4978439;28;20267;-83
2021/06/30 22:36:29;;;;;;;1.20;0.95;;;;;;;16.93;84.92;95477.47;4977560;28;20220;-85
2021/06/30 22:38:56;;;;;;;1.05;0.90;;;;;;;16.91;84.47;95480.28;4976567;28;20685;-84
2021/06/30 22:41:24;;;;;;;1.70;1.27;;;;;;;16.98;85.25;95482.00;4977164;28;20366;-86
2021/06/30 22:44:02;;;;;;;1.05;0.90;;;;;;;16.89;85.90;95489.31;4977262;28;20204;-85
2021/06/30 22:46:36;;;;;;;0.80;0.80;;;;;;;16.78;85.71;95485.63;4976975;28;20231;-84
2021/06/30 22:49:06;;;;;;;1.77;0.90;;;;;;;16.63;86.25;95480.00;4978464;28;20196;-84
2021/06/30 22:51:36;;;;;;;0.75;0.70;;;;;;;16.63;86.37;95498.19;4977329;28;20201;-85
2021/06/30 22:54:09;;;;;;;1.75;0.80;;;;;;;16.56;86.31;95492.22;4977712;28;20212;-85
2021/06/30 22:56:49;;;;;;;0.57;0.57;;;;;;;16.44;85.68;95506.97;4975692;28;20318;-85
2021/06/30 22:59:17;;;;;;;0.70;0.70;;;;;;;16.31;83.60;95504.50;4977396;28;20195;-84
2021/06/30 23:01:44;;;;;;;2.08;0.50;;;;;;;16.19;79.55;95502.56;4975530;28;20287;-84
2021/06/30 23:04:21;;;;;;;0.50;0.50;;;;;;;16.03;79.46;95505.72;4977298;28;20259;-84
2021/06/30 23:06:48;;;;;;;1.10;0.60;;;;;;;16.01;80.94;95510.31;4977206;28;20235;-84
2021/06/30 23:09:16;;;;;;;0.60;0.60;;;;;;;16.09;81.02;95514.47;4977767;28;20210;-85
2021/06/30 23:11:48;;;;;;;0.57;0.57;;;;;;;16.05;79.98;95510.69;4976269;28;20208;-85
2021/06/30 23:14:15;;;;;;;0.50;0.50;;;;;;;15.99;80.06;95508.94;4976806;28;20218;-87
2021/06/30 23:16:46;;;;;;;0.70;0.70;;;;;;;15.99;80.44;95520.13;4977224;28;20220;-86
2021/06/30 23:19:13;;;;;;;0.50;0.50;;;;;;;15.83;81.31;95516.25;4976288;28;20205;-84
2021/06/30 23:21:39;;;;;;;0.57;0.50;;;;;;;15.90;82.06;95511.00;4976727;28;20703;-86
2021/06/30 23:24:06;;;;;;;0.60;0.60;;;;;;;15.96;82.07;95509.38;4976872;28;20208;-84
2021/06/30 23:26:33;;;;;;;0.50;0.50;;;;;;;15.96;81.26;95507.59;4977249;28;20235;-85
2021/06/30 23:29:01;;;;;;;0.63;0.60;;;;;;;15.94;81.31;95508.78;4977336;28;20208;-85
2021/06/30 23:31:28;;;;;;;0.83;0.60;;;;;;;15.96;81.67;95507.59;4976634;28;20207;-84
2021/06/30 23:33:54;;;;;;;1.43;0.60;;;;;;;15.96;81.49;95511.97;4976805;28;20204;-85
2021/06/30 23:36:23;;;;;;;0.50;0.50;;;;;;;15.98;82.28;95504.75;4976697;28;20531;-87
2021/06/30 23:38:49;;;;;;;2.05;0.57;;;;;;;16.00;81.63;95513.91;4976692;28;20227;-85
2021/06/30 23:41:16;;;;;;;1.38;0.52;;;;;;;15.87;82.01;95509.63;4976550;28;20210;-86
2021/06/30 23:43:42;;;;;;;0.50;0.50;;;;;;;15.88;83.46;95513.03;4976235;28;20235;-84
2021/06/30 23:46:12;;;;;;;1.17;0.60;;;;;;;15.94;82.18;95509.59;4975849;28;20258;-85
2021/06/30 23:48:39;;;;;;;1.42;0.60;;;;;;;15.77;82.43;95513.72;4976021;28;20274;-86
2021/06/30 23:51:05;;;;;;;0.60;0.60;;;;;;;15.79;82.53;95507.28;4976194;28;20227;-86
2021/06/30 23:53:32;;;;;;;0.50;0.50;;;;;;;15.63;82.80;95512.97;4975712;28;20204;-85
2021/06/30 23:55:59;;;;;;;0.73;0.60;;;;;;;15.72;82.74;95506.53;4975289;28;20707;-84
2021/06/30 23:58:25;;;;;;;0.68;0.68;;;;;;;15.77;82.56;95504.13;4975924;28;20196;-86
